createdAt,value
2019-05-17T00:00:11.660Z,1009.60
2019-05-17T00:00:41.720Z,1009.59
2019-05-17T00:01:41.733Z,1009.56
2019-05-17T00:02:11.689Z,1009.55
2019-05-17T00:02:41.721Z,1009.54
2019-05-17T00:03:11.672Z,1009.57
2019-05-17T00:04:11.666Z,1009.55
2019-05-17T00:04:41.731Z,1009.52
2019-05-17T00:05:11.665Z,1009.53
2019-05-17T00:05:41.729Z,1009.49
2019-05-17T00:06:44.477Z,1009.47
2019-05-17T00:07:11.667Z,1009.49
2019-05-17T00:07:41.738Z,1009.47
2019-05-17T00:08:11.666Z,1009.48
2019-05-17T00:09:11.689Z,1009.45
2019-05-17T00:09:44.566Z,1009.45
2019-05-17T00:10:11.663Z,1009.43
2019-05-17T00:10:41.721Z,1009.43
2019-05-17T00:11:41.760Z,1009.43
2019-05-17T00:12:11.683Z,1009.42
2019-05-17T00:12:41.727Z,1009.39
2019-05-17T00:13:17.221Z,1009.39
2019-05-17T00:14:11.691Z,1009.41
2019-05-17T00:14:41.720Z,1009.39
2019-05-17T00:15:11.682Z,1009.42
2019-05-17T00:15:41.731Z,1009.40
2019-05-17T00:16:41.731Z,1009.34
2019-05-17T00:17:14.271Z,1009.35
2019-05-17T00:17:41.729Z,1009.36
2019-05-17T00:18:11.759Z,1009.37
2019-05-17T00:19:11.668Z,1009.33
2019-05-17T00:19:41.732Z,1009.35
2019-05-17T00:20:14.354Z,1009.33
2019-05-17T00:20:41.731Z,1009.31
2019-05-17T00:21:41.732Z,1009.30
2019-05-17T00:22:11.738Z,1009.30
2019-05-17T00:22:41.732Z,1009.27
2019-05-17T00:23:11.671Z,1009.30
2019-05-17T00:24:11.686Z,1009.25
2019-05-17T00:24:41.874Z,1009.28
2019-05-17T00:25:11.664Z,1009.25
2019-05-17T00:25:41.723Z,1009.24
2019-05-17T00:26:41.831Z,1009.23
2019-05-17T00:27:11.661Z,1009.24
2019-05-17T00:27:44.582Z,1009.23
2019-05-17T00:28:11.665Z,1009.23
2019-05-17T00:29:11.675Z,1009.27
2019-05-17T00:29:41.734Z,1009.25
2019-05-17T00:30:11.669Z,1009.26
2019-05-17T00:30:46.411Z,1009.25
2019-05-17T00:31:41.729Z,1009.28
2019-05-17T00:32:11.679Z,1009.27
2019-05-17T00:32:41.736Z,1009.27
2019-05-17T00:33:11.674Z,1009.25
2019-05-17T00:34:11.668Z,1009.24
2019-05-17T00:34:41.733Z,1009.24
2019-05-17T00:35:11.682Z,1009.24
2019-05-17T00:35:41.730Z,1009.25
2019-05-17T00:36:41.728Z,1009.20
2019-05-17T00:37:11.671Z,1009.21
2019-05-17T00:37:41.738Z,1009.22
2019-05-17T00:38:16.715Z,1009.21
2019-05-17T00:39:11.665Z,1009.22
2019-05-17T00:39:41.749Z,1009.20
2019-05-17T00:40:11.671Z,1009.18
2019-05-17T00:40:41.739Z,1009.20
2019-05-17T00:41:41.735Z,1009.20
2019-05-17T00:42:11.673Z,1009.20
2019-05-17T00:42:41.730Z,1009.17
2019-05-17T00:43:11.836Z,1009.14
2019-05-17T00:44:11.672Z,1009.15
2019-05-17T00:44:41.732Z,1009.11
2019-05-17T00:45:11.744Z,1009.12
2019-05-17T00:45:41.725Z,1009.12
2019-05-17T00:46:41.769Z,1009.11
2019-05-17T00:47:11.673Z,1009.10
2019-05-17T00:47:41.728Z,1009.13
2019-05-17T00:48:11.675Z,1009.10
2019-05-17T00:49:11.702Z,1009.10
2019-05-17T00:49:41.744Z,1009.06
2019-05-17T00:50:11.672Z,1009.06
2019-05-17T00:50:41.897Z,1009.06
2019-05-17T00:51:44.189Z,1009.05
2019-05-17T00:52:11.667Z,1009.06
2019-05-17T00:52:41.742Z,1009.04
2019-05-17T00:53:11.673Z,1009.03
2019-05-17T00:54:11.676Z,1009.03
2019-05-17T00:54:41.736Z,1009.04
2019-05-17T00:55:11.669Z,1009.06
2019-05-17T00:55:41.806Z,1009.05
2019-05-17T00:56:41.743Z,1009.09
2019-05-17T00:57:11.670Z,1009.07
2019-05-17T00:57:41.805Z,1009.08
2019-05-17T00:58:11.677Z,1009.04
2019-05-17T00:59:16.813Z,1009.05
2019-05-17T00:59:41.735Z,1009.06
2019-05-17T01:00:11.673Z,1009.03
2019-05-17T01:00:41.742Z,1009.02
2019-05-17T01:01:41.733Z,1009.01
2019-05-17T01:02:16.285Z,1008.99
2019-05-17T01:02:41.892Z,1008.98
2019-05-17T01:03:11.669Z,1008.98
2019-05-17T01:04:11.686Z,1008.98
2019-05-17T01:04:41.734Z,1008.97
2019-05-17T01:05:11.682Z,1008.96
2019-05-17T01:05:41.737Z,1008.96
2019-05-17T01:06:41.743Z,1008.96
2019-05-17T01:07:11.682Z,1008.93
2019-05-17T01:07:41.739Z,1008.93
2019-05-17T01:08:11.734Z,1008.91
2019-05-17T01:09:11.676Z,1008.91
2019-05-17T01:09:44.466Z,1008.90
2019-05-17T01:10:11.675Z,1008.89
2019-05-17T01:10:41.751Z,1008.90
2019-05-17T01:11:41.741Z,1008.87
2019-05-17T01:12:11.671Z,1008.89
2019-05-17T01:12:44.186Z,1008.87
2019-05-17T01:13:11.673Z,1008.86
2019-05-17T01:14:11.676Z,1008.86
2019-05-17T01:14:41.744Z,1008.83
2019-05-17T01:15:11.674Z,1008.83
2019-05-17T01:15:41.747Z,1008.83
2019-05-17T01:16:41.845Z,1008.81
2019-05-17T01:17:11.682Z,1008.83
2019-05-17T01:17:41.784Z,1008.80
2019-05-17T01:18:11.677Z,1008.77
2019-05-17T01:19:11.679Z,1008.78
2019-05-17T01:19:41.745Z,1008.79
2019-05-17T01:20:14.245Z,1008.77
2019-05-17T01:20:41.743Z,1008.76
2019-05-17T01:21:41.762Z,1008.76
2019-05-17T01:22:11.693Z,1008.75
2019-05-17T01:22:41.770Z,1008.75
2019-05-17T01:23:16.524Z,1008.75
2019-05-17T01:24:11.679Z,1008.74
2019-05-17T01:24:41.744Z,1008.75
2019-05-17T01:25:11.674Z,1008.73
2019-05-17T01:25:41.745Z,1008.73
2019-05-17T01:26:41.741Z,1008.76
2019-05-17T01:27:11.685Z,1008.76
2019-05-17T01:27:41.753Z,1008.70
2019-05-17T01:28:11.685Z,1008.69
2019-05-17T01:29:11.681Z,1008.69
2019-05-17T01:29:41.762Z,1008.71
2019-05-17T01:30:11.685Z,1008.70
2019-05-17T01:30:46.342Z,1008.71
2019-05-17T01:31:41.754Z,1008.71
2019-05-17T01:32:11.686Z,1008.73
2019-05-17T01:32:41.749Z,1008.70
2019-05-17T01:33:11.687Z,1008.69
2019-05-17T01:34:11.689Z,1008.70
2019-05-17T01:34:41.751Z,1008.74
2019-05-17T01:35:11.763Z,1008.72
2019-05-17T01:35:41.746Z,1008.73
2019-05-17T01:36:41.750Z,1008.72
2019-05-17T01:37:11.743Z,1008.74
2019-05-17T01:37:41.745Z,1008.74
2019-05-17T01:38:11.691Z,1008.74
2019-05-17T01:39:20.524Z,1008.74
2019-05-17T01:39:41.740Z,1008.73
2019-05-17T01:40:11.687Z,1008.74
2019-05-17T01:40:41.747Z,1008.73
2019-05-17T01:41:41.763Z,1008.71
2019-05-17T01:42:11.687Z,1008.72
2019-05-17T01:42:41.745Z,1008.73
2019-05-17T01:43:11.690Z,1008.72
2019-05-17T01:44:16.524Z,1008.70
2019-05-17T01:44:41.747Z,1008.72
2019-05-17T01:45:11.685Z,1008.73
2019-05-17T01:45:41.824Z,1008.72
2019-05-17T01:46:41.756Z,1008.70
2019-05-17T01:47:11.683Z,1008.69
2019-05-17T01:47:41.807Z,1008.71
2019-05-17T01:48:11.703Z,1008.70
2019-05-17T01:49:11.687Z,1008.67
2019-05-17T01:49:41.786Z,1008.66
2019-05-17T01:50:11.687Z,1008.65
2019-05-17T01:50:46.450Z,1008.63
2019-05-17T01:51:46.463Z,1008.62
2019-05-17T01:52:11.693Z,1008.66
2019-05-17T01:52:41.747Z,1008.65
2019-05-17T01:53:11.686Z,1008.61
2019-05-17T01:53:41.745Z,1008.62
2019-05-17T01:54:11.968Z,1008.63
2019-05-17T01:54:46.771Z,1008.62
2019-05-17T01:55:11.683Z,1008.62
2019-05-17T01:55:41.743Z,1008.63
2019-05-17T01:56:11.685Z,1008.62
2019-05-17T01:56:41.755Z,1008.59
2019-05-17T01:57:12.289Z,1008.62
2019-05-17T01:57:41.747Z,1008.58
2019-05-17T01:58:11.685Z,1008.57
2019-05-17T01:58:41.777Z,1008.59
2019-05-17T01:59:11.686Z,1008.58
2019-05-17T01:59:41.749Z,1008.56
2019-05-17T02:00:11.689Z,1008.57
2019-05-17T02:00:41.753Z,1008.57
2019-05-17T02:01:11.689Z,1008.58
2019-05-17T02:01:41.756Z,1008.55
2019-05-17T02:02:16.294Z,1008.55
2019-05-17T02:02:41.761Z,1008.56
2019-05-17T02:03:11.686Z,1008.53
2019-05-17T02:03:41.751Z,1008.55
2019-05-17T02:04:11.725Z,1008.55
2019-05-17T02:04:41.761Z,1008.53
2019-05-17T02:05:14.296Z,1008.54
2019-05-17T02:05:41.750Z,1008.53
2019-05-17T02:06:11.734Z,1008.54
2019-05-17T02:06:41.752Z,1008.51
2019-05-17T02:07:11.689Z,1008.53
2019-05-17T02:07:41.745Z,1008.54
2019-05-17T02:08:11.694Z,1008.53
2019-05-17T02:08:41.860Z,1008.53
2019-05-17T02:09:11.694Z,1008.52
2019-05-17T02:09:43.775Z,1008.53
2019-05-17T02:10:11.695Z,1008.53
2019-05-17T02:10:41.755Z,1008.53
2019-05-17T02:11:11.692Z,1008.53
2019-05-17T02:11:41.761Z,1008.55
2019-05-17T02:12:11.693Z,1008.50
2019-05-17T02:12:48.646Z,1008.54
2019-05-17T02:13:11.691Z,1008.54
2019-05-17T02:14:11.688Z,1008.49
2019-05-17T02:14:41.779Z,1008.49
2019-05-17T02:15:11.684Z,1008.51
2019-05-17T02:15:46.824Z,1008.55
2019-05-17T02:16:41.760Z,1008.52
2019-05-17T02:17:11.695Z,1008.53
2019-05-17T02:17:41.749Z,1008.51
2019-05-17T02:18:11.695Z,1008.52
2019-05-17T02:19:11.696Z,1008.50
2019-05-17T02:19:41.768Z,1008.51
2019-05-17T02:20:11.693Z,1008.48
2019-05-17T02:20:41.759Z,1008.52
2019-05-17T02:21:41.772Z,1008.49
2019-05-17T02:22:11.699Z,1008.48
2019-05-17T02:22:41.755Z,1008.47
2019-05-17T02:23:14.444Z,1008.47
2019-05-17T02:24:11.695Z,1008.46
2019-05-17T02:24:41.755Z,1008.47
2019-05-17T02:25:11.705Z,1008.45
2019-05-17T02:25:41.792Z,1008.46
2019-05-17T02:26:41.758Z,1008.45
2019-05-17T02:27:11.823Z,1008.42
2019-05-17T02:27:46.811Z,1008.45
2019-05-17T02:28:13.717Z,1008.44
2019-05-17T02:29:13.738Z,1008.44
2019-05-17T02:29:43.920Z,1008.44
2019-05-17T02:30:14.927Z,1008.43
2019-05-17T02:30:44.784Z,1008.42
2019-05-17T02:31:44.790Z,1008.46
2019-05-17T02:32:13.715Z,1008.44
2019-05-17T02:32:43.792Z,1008.45
2019-05-17T02:33:13.723Z,1008.45
2019-05-17T02:34:14.735Z,1008.43
2019-05-17T02:34:46.863Z,1008.43
2019-05-17T02:35:15.137Z,1008.45
2019-05-17T02:35:43.795Z,1008.41
2019-05-17T02:36:15.090Z,1008.43
2019-05-17T02:36:45.260Z,1008.42
2019-05-17T02:37:14.747Z,1008.41
2019-05-17T02:37:46.450Z,1008.40
2019-05-17T02:38:13.729Z,1008.43
2019-05-17T02:38:43.828Z,1008.45
2019-05-17T02:39:13.723Z,1008.43
2019-05-17T02:39:57.879Z,1008.41
2019-05-17T02:40:16.747Z,1008.42
2019-05-17T02:40:43.802Z,1008.43
2019-05-17T02:41:14.734Z,1008.42
2019-05-17T02:41:43.784Z,1008.44
2019-05-17T02:42:14.737Z,1008.44
2019-05-17T02:42:43.823Z,1008.41
2019-05-17T02:43:13.724Z,1008.46
2019-05-17T02:43:43.789Z,1008.44
2019-05-17T02:44:15.220Z,1008.43
2019-05-17T02:44:44.802Z,1008.42
2019-05-17T02:45:16.317Z,1008.40
2019-05-17T02:45:43.788Z,1008.43
2019-05-17T02:46:14.807Z,1008.42
2019-05-17T02:46:43.780Z,1008.42
2019-05-17T02:47:15.295Z,1008.40
2019-05-17T02:47:44.797Z,1008.41
2019-05-17T02:48:16.313Z,1008.40
2019-05-17T02:48:43.797Z,1008.39
2019-05-17T02:49:14.861Z,1008.41
2019-05-17T02:49:48.107Z,1008.41
2019-05-17T02:50:13.935Z,1008.43
2019-05-17T02:50:48.051Z,1008.41
2019-05-17T02:51:13.722Z,1008.43
2019-05-17T02:51:43.827Z,1008.42
2019-05-17T02:52:13.787Z,1008.42
2019-05-17T02:52:44.803Z,1008.43
2019-05-17T02:53:14.739Z,1008.44
2019-05-17T02:53:43.781Z,1008.43
2019-05-17T02:54:13.725Z,1008.42
2019-05-17T02:54:45.506Z,1008.42
2019-05-17T02:55:13.772Z,1008.42
2019-05-17T02:55:46.401Z,1008.41
2019-05-17T02:56:14.744Z,1008.43
2019-05-17T02:56:44.818Z,1008.39
2019-05-17T02:57:14.740Z,1008.43
2019-05-17T02:57:45.548Z,1008.40
2019-05-17T02:58:13.727Z,1008.42
2019-05-17T02:59:14.742Z,1008.41
2019-05-17T02:59:43.789Z,1008.43
2019-05-17T03:00:14.768Z,1008.42
2019-05-17T03:00:44.817Z,1008.42
2019-05-17T03:01:13.731Z,1008.41
2019-05-17T03:01:44.800Z,1008.41
2019-05-17T03:02:13.722Z,1008.42
2019-05-17T03:02:44.860Z,1008.41
2019-05-17T03:03:13.724Z,1008.39
2019-05-17T03:04:13.721Z,1008.41
2019-05-17T03:04:43.805Z,1008.38
2019-05-17T03:05:15.221Z,1008.41
2019-05-17T03:05:43.793Z,1008.40
2019-05-17T03:06:44.809Z,1008.40
2019-05-17T03:07:14.747Z,1008.38
2019-05-17T03:07:44.804Z,1008.40
2019-05-17T03:08:14.248Z,1008.35
2019-05-17T03:09:16.345Z,1008.36
2019-05-17T03:09:43.789Z,1008.36
2019-05-17T03:10:24.836Z,1008.36
2019-05-17T03:10:43.791Z,1008.38
2019-05-17T03:11:43.783Z,1008.39
2019-05-17T03:12:13.761Z,1008.38
2019-05-17T03:12:46.819Z,1008.40
2019-05-17T03:13:17.967Z,1008.37
2019-05-17T03:14:13.729Z,1008.39
2019-05-17T03:14:43.796Z,1008.40
2019-05-17T03:15:13.737Z,1008.43
2019-05-17T03:15:44.545Z,1008.41
2019-05-17T03:16:46.479Z,1008.39
2019-05-17T03:17:14.827Z,1008.40
2019-05-17T03:17:44.799Z,1008.41
2019-05-17T03:18:13.722Z,1008.39
2019-05-17T03:19:13.765Z,1008.37
2019-05-17T03:19:46.481Z,1008.34
2019-05-17T03:20:13.942Z,1008.32
2019-05-17T03:20:43.792Z,1008.33
2019-05-17T03:21:43.805Z,1008.29
2019-05-17T03:22:13.734Z,1008.31
2019-05-17T03:22:44.804Z,1008.29
2019-05-17T03:23:13.741Z,1008.28
2019-05-17T03:24:14.749Z,1008.27
2019-05-17T03:24:44.805Z,1008.31
2019-05-17T03:25:14.748Z,1008.32
2019-05-17T03:25:44.852Z,1008.30
2019-05-17T03:26:43.798Z,1008.33
2019-05-17T03:27:16.332Z,1008.31
2019-05-17T03:27:43.838Z,1008.29
2019-05-17T03:28:13.738Z,1008.28
2019-05-17T03:29:15.246Z,1008.30
2019-05-17T03:29:43.821Z,1008.31
2019-05-17T03:30:18.672Z,1008.32
2019-05-17T03:30:47.475Z,1008.30
2019-05-17T03:31:52.987Z,1008.31
2019-05-17T03:32:17.854Z,1008.33
2019-05-17T03:32:48.632Z,1008.31
2019-05-17T03:33:17.051Z,1008.31
2019-05-17T03:34:17.850Z,1008.31
2019-05-17T03:34:46.844Z,1008.31
2019-05-17T03:35:18.032Z,1008.31
2019-05-17T03:35:46.827Z,1008.31
2019-05-17T03:36:48.225Z,1008.31
2019-05-17T03:37:16.831Z,1008.30
2019-05-17T03:37:46.377Z,1008.32
2019-05-17T03:38:14.746Z,1008.31
2019-05-17T03:38:43.796Z,1008.31
2019-05-17T03:39:13.738Z,1008.30
2019-05-17T03:39:44.251Z,1008.31
2019-05-17T03:40:30.106Z,1008.30
2019-05-17T03:41:06.607Z,1008.32
2019-05-17T03:41:23.098Z,1008.32
2019-05-17T03:41:43.797Z,1008.32
2019-05-17T03:42:13.735Z,1008.33
2019-05-17T03:42:43.795Z,1008.32
2019-05-17T03:43:14.748Z,1008.34
2019-05-17T03:43:44.806Z,1008.35
2019-05-17T03:44:14.762Z,1008.33
2019-05-17T03:44:44.809Z,1008.35
2019-05-17T03:45:14.750Z,1008.36
2019-05-17T03:45:43.818Z,1008.37
2019-05-17T03:46:14.751Z,1008.35
2019-05-17T03:46:43.797Z,1008.36
2019-05-17T03:47:15.302Z,1008.36
2019-05-17T03:47:46.819Z,1008.36
2019-05-17T03:48:16.413Z,1008.34
2019-05-17T03:48:44.814Z,1008.35
2019-05-17T03:49:13.738Z,1008.36
2019-05-17T03:49:44.812Z,1008.35
2019-05-17T03:50:15.233Z,1008.34
2019-05-17T03:50:44.815Z,1008.36
2019-05-17T03:51:16.395Z,1008.34
2019-05-17T03:51:43.808Z,1008.33
2019-05-17T03:52:14.745Z,1008.32
2019-05-17T03:52:45.038Z,1008.32
2019-05-17T03:53:13.737Z,1008.34
2019-05-17T03:53:44.816Z,1008.32
2019-05-17T03:54:14.759Z,1008.35
2019-05-17T03:54:43.803Z,1008.32
2019-05-17T03:55:13.956Z,1008.32
2019-05-17T03:55:43.802Z,1008.32
2019-05-17T03:56:13.734Z,1008.33
2019-05-17T03:56:43.801Z,1008.31
2019-05-17T03:57:13.739Z,1008.33
2019-05-17T03:57:45.590Z,1008.34
2019-05-17T03:58:13.742Z,1008.33
2019-05-17T03:58:46.397Z,1008.32
2019-05-17T03:59:13.740Z,1008.34
2019-05-17T03:59:43.800Z,1008.33
2019-05-17T04:00:13.866Z,1008.33
2019-05-17T04:00:44.646Z,1008.34
2019-05-17T04:01:14.754Z,1008.33
2019-05-17T04:01:46.426Z,1008.34
2019-05-17T04:02:13.738Z,1008.34
2019-05-17T04:02:45.049Z,1008.36
2019-05-17T04:03:14.754Z,1008.32
2019-05-17T04:03:43.808Z,1008.35
2019-05-17T04:04:13.782Z,1008.34
2019-05-17T04:04:43.795Z,1008.32
2019-05-17T04:05:13.871Z,1008.30
2019-05-17T04:05:43.803Z,1008.29
2019-05-17T04:06:13.740Z,1008.28
2019-05-17T04:06:44.812Z,1008.28
2019-05-17T04:07:13.833Z,1008.29
2019-05-17T04:07:44.816Z,1008.26
2019-05-17T04:08:15.334Z,1008.31
2019-05-17T04:08:43.807Z,1008.28
2019-05-17T04:09:16.354Z,1008.28
2019-05-17T04:09:44.819Z,1008.28
2019-05-17T04:10:14.943Z,1008.29
2019-05-17T04:10:43.806Z,1008.26
2019-05-17T04:11:31.282Z,1008.29
2019-05-17T04:12:16.493Z,1008.30
2019-05-17T04:12:44.815Z,1008.29
2019-05-17T04:13:13.752Z,1008.32
2019-05-17T04:13:43.954Z,1008.33
2019-05-17T04:14:14.762Z,1008.33
2019-05-17T04:14:43.802Z,1008.30
2019-05-17T04:15:13.933Z,1008.30
2019-05-17T04:15:43.895Z,1008.33
2019-05-17T04:16:14.761Z,1008.32
2019-05-17T04:16:43.799Z,1008.34
2019-05-17T04:17:13.819Z,1008.31
2019-05-17T04:17:44.876Z,1008.32
2019-05-17T04:18:13.743Z,1008.32
2019-05-17T04:18:45.681Z,1008.31
2019-05-17T04:19:14.747Z,1008.32
2019-05-17T04:19:46.357Z,1008.32
2019-05-17T04:20:14.747Z,1008.33
2019-05-17T04:20:43.802Z,1008.35
2019-05-17T04:21:13.744Z,1008.34
2019-05-17T04:21:44.505Z,1008.34
2019-05-17T04:22:14.755Z,1008.36
2019-05-17T04:22:46.547Z,1008.37
2019-05-17T04:23:13.747Z,1008.35
2019-05-17T04:23:43.802Z,1008.34
2019-05-17T04:24:13.751Z,1008.37
2019-05-17T04:24:44.819Z,1008.34
2019-05-17T04:25:14.758Z,1008.35
2019-05-17T04:25:43.899Z,1008.37
2019-05-17T04:26:14.768Z,1008.37
2019-05-17T04:26:44.817Z,1008.37
2019-05-17T04:27:14.770Z,1008.38
2019-05-17T04:27:45.030Z,1008.35
2019-05-17T04:28:14.789Z,1008.37
2019-05-17T04:28:44.840Z,1008.38
2019-05-17T04:29:15.186Z,1008.37
2019-05-17T04:29:43.796Z,1008.39
2019-05-17T04:30:16.408Z,1008.42
2019-05-17T04:30:43.809Z,1008.41
2019-05-17T04:31:13.794Z,1008.45
2019-05-17T04:31:44.828Z,1008.41
2019-05-17T04:32:15.244Z,1008.45
2019-05-17T04:32:44.858Z,1008.44
2019-05-17T04:33:16.352Z,1008.44
2019-05-17T04:33:43.806Z,1008.45
2019-05-17T04:34:14.755Z,1008.47
2019-05-17T04:34:44.817Z,1008.44
2019-05-17T04:35:13.999Z,1008.48
2019-05-17T04:35:43.803Z,1008.50
2019-05-17T04:36:13.811Z,1008.51
2019-05-17T04:36:43.806Z,1008.51
2019-05-17T04:37:14.755Z,1008.49
2019-05-17T04:37:45.259Z,1008.49
2019-05-17T04:38:13.766Z,1008.49
2019-05-17T04:38:43.871Z,1008.54
2019-05-17T04:39:13.799Z,1008.50
2019-05-17T04:39:45.176Z,1008.52
2019-05-17T04:40:14.970Z,1008.52
2019-05-17T04:40:46.429Z,1008.49
2019-05-17T04:41:13.752Z,1008.51
2019-05-17T04:41:50.879Z,1008.51
2019-05-17T04:42:14.767Z,1008.50
2019-05-17T04:42:45.224Z,1008.49
2019-05-17T04:43:14.764Z,1008.51
2019-05-17T04:44:13.754Z,1008.53
2019-05-17T04:44:43.856Z,1008.50
2019-05-17T04:45:13.846Z,1008.51
2019-05-17T04:45:43.817Z,1008.52
2019-05-17T04:46:13.751Z,1008.51
2019-05-17T04:46:43.850Z,1008.51
2019-05-17T04:47:13.757Z,1008.49
2019-05-17T04:47:44.996Z,1008.49
2019-05-17T04:48:13.747Z,1008.52
2019-05-17T04:48:44.825Z,1008.50
2019-05-17T04:49:14.770Z,1008.52
2019-05-17T04:49:44.826Z,1008.51
2019-05-17T04:50:15.215Z,1008.53
2019-05-17T04:50:43.801Z,1008.50
2019-05-17T04:51:44.835Z,1008.57
2019-05-17T04:52:14.757Z,1008.55
2019-05-17T04:52:43.900Z,1008.55
2019-05-17T04:53:15.250Z,1008.57
2019-05-17T04:53:43.814Z,1008.56
2019-05-17T04:54:16.390Z,1008.56
2019-05-17T04:54:43.814Z,1008.57
2019-05-17T04:55:14.869Z,1008.56
2019-05-17T04:55:43.813Z,1008.55
2019-05-17T04:56:43.817Z,1008.55
2019-05-17T04:57:13.751Z,1008.54
2019-05-17T04:57:44.823Z,1008.54
2019-05-17T04:58:14.766Z,1008.53
2019-05-17T04:58:43.815Z,1008.51
2019-05-17T04:59:14.777Z,1008.51
2019-05-17T04:59:43.815Z,1008.52
2019-05-17T05:00:13.867Z,1008.49
2019-05-17T05:00:44.583Z,1008.53
2019-05-17T05:01:13.751Z,1008.51
2019-05-17T05:01:46.397Z,1008.52
2019-05-17T05:02:13.750Z,1008.50
2019-05-17T05:02:44.829Z,1008.51
2019-05-17T05:03:13.795Z,1008.54
2019-05-17T05:04:15.030Z,1008.52
2019-05-17T05:04:46.466Z,1008.50
2019-05-17T05:05:14.764Z,1008.49
2019-05-17T05:05:43.809Z,1008.49
2019-05-17T05:06:43.968Z,1008.50
2019-05-17T05:07:14.770Z,1008.49
2019-05-17T05:07:44.881Z,1008.52
2019-05-17T05:08:13.751Z,1008.49
2019-05-17T05:08:43.814Z,1008.47
2019-05-17T05:09:13.754Z,1008.49
2019-05-17T05:09:43.896Z,1008.49
2019-05-17T05:10:14.762Z,1008.49
2019-05-17T05:10:43.821Z,1008.45
2019-05-17T05:11:56.863Z,1008.46
2019-05-17T05:12:16.591Z,1008.45
2019-05-17T05:12:44.845Z,1008.43
2019-05-17T05:13:13.759Z,1008.45
2019-05-17T05:14:14.239Z,1008.45
2019-05-17T05:14:43.866Z,1008.44
2019-05-17T05:15:16.494Z,1008.43
2019-05-17T05:15:44.974Z,1008.40
2019-05-17T05:16:13.791Z,1008.42
2019-05-17T05:16:43.816Z,1008.41
2019-05-17T05:17:13.749Z,1008.39
2019-05-17T05:17:43.813Z,1008.39
2019-05-17T05:18:13.983Z,1008.40
2019-05-17T05:18:43.833Z,1008.39
2019-05-17T05:19:13.750Z,1008.40
2019-05-17T05:19:43.813Z,1008.41
2019-05-17T05:20:13.834Z,1008.39
2019-05-17T05:20:44.830Z,1008.40
2019-05-17T05:21:13.757Z,1008.39
2019-05-17T05:21:44.176Z,1008.40
2019-05-17T05:22:17.467Z,1008.40
2019-05-17T05:22:46.392Z,1008.41
2019-05-17T05:23:13.848Z,1008.41
2019-05-17T05:24:13.750Z,1008.42
2019-05-17T05:24:44.223Z,1008.39
2019-05-17T05:25:13.767Z,1008.39
2019-05-17T05:25:46.531Z,1008.38
2019-05-17T05:26:43.815Z,1008.40
2019-05-17T05:27:13.760Z,1008.41
2019-05-17T05:27:43.822Z,1008.40
2019-05-17T05:28:12.754Z,1008.40
2019-05-17T05:29:13.758Z,1008.41
2019-05-17T05:29:43.820Z,1008.41
2019-05-17T05:30:13.764Z,1008.41
2019-05-17T05:30:43.816Z,1008.40
2019-05-17T05:31:43.818Z,1008.39
2019-05-17T05:32:14.721Z,1008.40
2019-05-17T05:32:43.830Z,1008.40
2019-05-17T05:33:16.339Z,1008.41
2019-05-17T05:34:13.756Z,1008.39
2019-05-17T05:34:46.850Z,1008.40
2019-05-17T05:35:14.547Z,1008.41
2019-05-17T05:35:43.814Z,1008.42
2019-05-17T05:36:43.942Z,1008.44
2019-05-17T05:37:13.754Z,1008.44
2019-05-17T05:37:43.827Z,1008.42
2019-05-17T05:38:13.755Z,1008.42
2019-05-17T05:39:13.754Z,1008.43
2019-05-17T05:39:42.809Z,1008.43
2019-05-17T05:40:13.758Z,1008.44
2019-05-17T05:40:42.861Z,1008.44
2019-05-17T05:41:43.819Z,1008.42
2019-05-17T05:42:14.779Z,1008.41
2019-05-17T05:42:44.555Z,1008.39
2019-05-17T05:43:13.762Z,1008.38
2019-05-17T05:44:13.760Z,1008.41
2019-05-17T05:44:42.819Z,1008.41
2019-05-17T05:45:13.766Z,1008.39
2019-05-17T05:45:44.604Z,1008.39
2019-05-17T05:46:46.430Z,1008.39
2019-05-17T05:47:13.755Z,1008.39
2019-05-17T05:47:42.809Z,1008.40
2019-05-17T05:48:13.762Z,1008.38
2019-05-17T05:49:13.766Z,1008.36
2019-05-17T05:49:43.826Z,1008.37
2019-05-17T05:50:13.762Z,1008.39
2019-05-17T05:50:43.824Z,1008.37
2019-05-17T05:51:43.816Z,1008.36
2019-05-17T05:52:13.759Z,1008.36
2019-05-17T05:52:43.819Z,1008.36
2019-05-17T05:53:14.627Z,1008.38
2019-05-17T05:54:16.334Z,1008.39
2019-05-17T05:54:42.812Z,1008.38
2019-05-17T05:55:13.765Z,1008.42
2019-05-17T05:55:43.822Z,1008.40
2019-05-17T05:56:43.826Z,1008.42
2019-05-17T05:57:16.379Z,1008.41
2019-05-17T05:57:43.830Z,1008.39
2019-05-17T05:58:13.767Z,1008.38
2019-05-17T05:59:13.783Z,1008.40
2019-05-17T05:59:43.904Z,1008.41
2019-05-17T06:00:13.771Z,1008.42
2019-05-17T06:00:43.895Z,1008.38
2019-05-17T06:01:43.911Z,1008.39
2019-05-17T06:02:13.763Z,1008.39
2019-05-17T06:02:43.883Z,1008.37
2019-05-17T06:03:13.766Z,1008.40
2019-05-17T06:04:13.771Z,1008.38
2019-05-17T06:04:46.404Z,1008.38
2019-05-17T06:05:17.414Z,1008.40
2019-05-17T06:05:43.846Z,1008.39
2019-05-17T06:06:44.217Z,1008.38
2019-05-17T06:07:13.764Z,1008.38
2019-05-17T06:07:46.444Z,1008.39
2019-05-17T06:08:13.770Z,1008.40
2019-05-17T06:09:13.766Z,1008.39
2019-05-17T06:09:43.831Z,1008.41
2019-05-17T06:10:13.762Z,1008.41
2019-05-17T06:10:43.831Z,1008.40
2019-05-17T06:11:43.838Z,1008.42
2019-05-17T06:12:23.553Z,1008.43
2019-05-17T06:12:43.853Z,1008.40
2019-05-17T06:13:13.763Z,1008.41
2019-05-17T06:14:14.583Z,1008.40
2019-05-17T06:14:43.824Z,1008.39
2019-05-17T06:15:16.382Z,1008.41
2019-05-17T06:15:43.834Z,1008.42
2019-05-17T06:16:43.828Z,1008.37
2019-05-17T06:17:14.537Z,1008.39
2019-05-17T06:17:43.828Z,1008.35
2019-05-17T06:18:16.402Z,1008.39
2019-05-17T06:19:13.764Z,1008.33
2019-05-17T06:19:43.830Z,1008.35
2019-05-17T06:20:13.768Z,1008.32
2019-05-17T06:20:43.831Z,1008.34
2019-05-17T06:21:43.954Z,1008.34
2019-05-17T06:22:13.788Z,1008.34
2019-05-17T06:22:43.824Z,1008.33
2019-05-17T06:23:13.773Z,1008.33
2019-05-17T06:24:13.768Z,1008.36
2019-05-17T06:24:44.528Z,1008.35
2019-05-17T06:25:15.867Z,1008.34
2019-05-17T06:25:46.420Z,1008.33
2019-05-17T06:26:43.896Z,1008.33
2019-05-17T06:27:13.768Z,1008.32
2019-05-17T06:27:44.354Z,1008.32
2019-05-17T06:28:12.749Z,1008.32
2019-05-17T06:29:13.774Z,1008.29
2019-05-17T06:29:42.823Z,1008.29
2019-05-17T06:30:13.778Z,1008.30
2019-05-17T06:30:43.862Z,1008.27
2019-05-17T06:31:11.755Z,1008.26
2019-05-17T06:31:43.833Z,1008.22
2019-05-17T06:32:13.770Z,1008.25
2019-05-17T06:32:43.830Z,1008.23
2019-05-17T06:33:27.870Z,1008.21
2019-05-17T06:34:13.783Z,1008.23
2019-05-17T06:34:43.840Z,1008.21
2019-05-17T06:35:14.658Z,1008.22
2019-05-17T06:35:43.830Z,1008.23
2019-05-17T06:36:43.837Z,1008.18
2019-05-17T06:37:18.456Z,1008.17
2019-05-17T06:37:43.826Z,1008.20
2019-05-17T06:38:14.535Z,1008.19
2019-05-17T06:39:16.435Z,1008.16
2019-05-17T06:39:43.831Z,1008.18
2019-05-17T06:40:13.767Z,1008.16
2019-05-17T06:40:43.831Z,1008.14
2019-05-17T06:41:43.836Z,1008.15
2019-05-17T06:42:13.778Z,1008.14
2019-05-17T06:42:46.863Z,1008.14
2019-05-17T06:43:13.781Z,1008.12
2019-05-17T06:44:13.769Z,1008.12
2019-05-17T06:44:43.835Z,1008.12
2019-05-17T06:45:13.778Z,1008.11
2019-05-17T06:45:44.451Z,1008.13
2019-05-17T06:46:46.538Z,1008.14
2019-05-17T06:47:13.774Z,1008.07
2019-05-17T06:47:43.830Z,1008.10
2019-05-17T06:48:13.771Z,1008.09
2019-05-17T06:49:13.769Z,1008.10
2019-05-17T06:49:46.502Z,1008.06
2019-05-17T06:50:14.225Z,1008.07
2019-05-17T06:50:43.837Z,1008.05
2019-05-17T06:51:43.841Z,1008.06
2019-05-17T06:52:13.778Z,1008.04
2019-05-17T06:52:44.850Z,1008.04
2019-05-17T06:53:13.769Z,1008.07
2019-05-17T06:54:13.770Z,1008.05
2019-05-17T06:54:43.838Z,1008.08
2019-05-17T06:55:13.772Z,1008.07
2019-05-17T06:55:43.856Z,1008.07
2019-05-17T06:56:43.836Z,1008.04
2019-05-17T06:57:16.511Z,1008.06
2019-05-17T06:57:43.836Z,1008.08
2019-05-17T06:58:14.024Z,1008.04
2019-05-17T06:58:41.810Z,1008.02
2019-05-17T06:59:14.580Z,1008.02
2019-05-17T06:59:41.851Z,1007.99